CYXX

Abbotsford Airport

Abbotsford, , Canada
TAF CYXX 181739Z 1818/1918 24006KT P6SM FEW020 BKN030 TEMPO 1818/1821 BKN020 FM182100 22010KT P6SM SCT040 BECMG 1904/1906 20005KT FM190900 VRB03KT P6SM BKN040 FM191400 20006KT P6SM FEW015 BKN030 RMK NXT FCST BY 190000Z
Issued Valid From Valid To
Jul-18 @ 17:39 UTC
(5 hours ago)
Jul-18 @ 18:00 UTC
(4 hours ago)
Jul-19 @ 18:00 UTC
(in 20 hours)
Expired Click to View Jul-18 @ 18:00 to Jul-18 @ 21:00
TAF CYXX 181739Z 1818/1918 24006KT P6SM FEW020 BKN030
Wind Visibility Clouds
240° at 6 knots Greater than 6 miles
  • Few at 2,000' AGL
  • Broken at 3,000' AGL
Expired Click to View Jul-18 @ 18:00 to Jul-18 @ 21:00
TEMPO 1818/1821 BKN020
Clouds
  • Broken at 2,000' AGL
From Jul-18 @ 21:00 to Jul-19 @ 04:00
FM182100 22010KT P6SM SCT040
Wind Visibility Clouds
220° at 10 knots Greater than 6 miles
  • Scattered at 4,000' AGL
Becoming Jul-19 @ 04:00 to Jul-19 @ 09:00
BECMG 1904/1906 20005KT
Wind Visibility Clouds
200° at 5 knots Greater than 6 miles
  • Scattered at 4,000' AGL
From Jul-19 @ 09:00 to Jul-19 @ 14:00
FM190900 VRB03KT P6SM BKN040
Wind Visibility Clouds
Variable at 3 knots Greater than 6 miles
  • Broken at 4,000' AGL
From Jul-19 @ 14:00 to Jul-19 @ 18:00
FM191400 20006KT P6SM FEW015 BKN030 RMK NXT FCST BY 190000Z
Wind Visibility Clouds
200° at 6 knots Greater than 6 miles
  • Few at 1,500' AGL
  • Broken at 3,000' AGL
TAF CYXX 181739Z 1818/1918 24006KT P6SM FEW020 BKN030 TEMPO 1818/1821 BKN020 FM182100 22010KT P6SM SCT040 BECMG 1904/1906 20005KT FM190900 VRB03KT P6SM BKN040 FM191400 20006KT P6SM FEW015 BKN030 RMK NXT FCST BY 190000Z
Issued Jul-18 @ 17:39 UTC
(5 hours ago)
Valid From Jul-18 @ 18:00 UTC
(4 hours ago)
Valid To Jul-19 @ 18:00 UTC
(in 20 hours)
Jul-18 @ 18:00 - Jul-18 @ 21:00
Wind Visibility
240° at 6 knots Greater than 6 miles
Clouds
  • Few at 2,000' AGL
  • Broken at 3,000' AGL
Jul-18 @ 18:00 - Jul-18 @ 21:00
Clouds
  • Broken at 2,000' AGL
From Jul-18 @ 21:00 - Jul-19 @ 04:00
Wind Visibility
220° at 10 knots Greater than 6 miles
Clouds
  • Scattered at 4,000' AGL
Becoming Jul-19 @ 04:00 - Jul-19 @ 09:00
Wind Visibility
200° at 5 knots Greater than 6 miles
Clouds
  • Scattered at 4,000' AGL
From Jul-19 @ 09:00 - Jul-19 @ 14:00
Wind Visibility
Variable at 3 knots Greater than 6 miles
Clouds
  • Broken at 4,000' AGL
From Jul-19 @ 14:00 - Jul-19 @ 18:00
Wind Visibility
200° at 6 knots Greater than 6 miles
Clouds
  • Few at 1,500' AGL
  • Broken at 3,000' AGL